createdAt,value
2023-02-01T00:05:38.146Z,85.9
2023-02-01T00:35:39.200Z,82.1
2023-02-01T00:40:38.161Z,82.1
2023-02-01T00:50:38.147Z,82.0
2023-02-01T00:55:38.133Z,81.8
2023-02-01T01:00:38.205Z,82.8
2023-02-01T01:05:38.146Z,82.8
2023-02-01T01:10:38.145Z,83.3
2023-02-01T01:15:38.136Z,83.5
2023-02-01T01:20:38.130Z,84.3
2023-02-01T01:25:38.139Z,84.5
2023-02-01T01:45:38.133Z,87.0
2023-02-01T01:50:39.474Z,86.4
2023-02-01T01:55:38.145Z,86.4
2023-02-01T02:00:38.220Z,86.4
2023-02-01T02:05:38.139Z,86.9
2023-02-01T02:15:38.179Z,86.6
2023-02-01T02:30:38.264Z,86.2
2023-02-01T02:35:38.162Z,84.7
2023-02-01T02:40:38.218Z,84.8
2023-02-01T02:45:38.244Z,84.8
2023-02-01T02:55:38.173Z,85.9
2023-02-01T03:00:38.181Z,86.3
2023-02-01T03:05:38.188Z,86.6
2023-02-01T03:10:38.178Z,87.7
2023-02-01T03:20:38.196Z,87.3
2023-02-01T03:30:38.245Z,87.9
2023-02-01T03:35:38.183Z,88.9
2023-02-01T03:40:38.190Z,88.5
2023-02-01T03:50:38.197Z,87.9
2023-02-01T03:55:38.175Z,87.9
2023-02-01T04:00:38.181Z,87.7
2023-02-01T04:05:38.173Z,86.5
2023-02-01T04:10:38.182Z,86.8
2023-02-01T04:15:38.175Z,88.2
2023-02-01T04:25:38.205Z,88.7
2023-02-01T04:30:38.313Z,89.4
2023-02-01T04:35:38.177Z,88.0
2023-02-01T04:45:38.185Z,88.7
2023-02-01T04:50:39.629Z,86.1
2023-02-01T04:55:38.194Z,86.1
2023-02-01T05:05:38.180Z,85.0
2023-02-01T05:10:38.206Z,84.9
2023-02-01T05:20:38.194Z,84.2
2023-02-01T05:25:38.293Z,83.3
2023-02-01T05:40:38.207Z,82.1
2023-02-01T05:50:38.221Z,81.3
2023-02-01T05:55:38.243Z,81.1
2023-02-01T06:10:38.230Z,81.0
2023-02-01T06:20:38.236Z,80.7
2023-02-01T06:30:38.232Z,80.3
2023-02-01T06:35:38.230Z,80.4
2023-02-01T06:40:38.220Z,80.0
2023-02-01T06:55:38.243Z,80.3
2023-02-01T07:10:38.258Z,80.4
2023-02-01T07:15:38.236Z,80.6
2023-02-01T07:20:38.474Z,80.5
2023-02-01T07:25:38.249Z,80.6
2023-02-01T07:30:38.281Z,81.0
2023-02-01T07:35:38.234Z,81.5
2023-02-01T07:40:38.244Z,82.6
2023-02-01T08:00:38.344Z,83.0
2023-02-01T08:05:38.254Z,82.8
2023-02-01T08:15:38.224Z,83.0
2023-02-01T08:20:39.604Z,83.1
2023-02-01T08:30:38.297Z,82.8
2023-02-01T08:35:43.771Z,82.7
2023-02-01T08:40:38.277Z,82.6
2023-02-01T08:50:38.272Z,81.5
2023-02-01T08:55:38.264Z,81.0
2023-02-01T09:00:38.262Z,80.4
2023-02-01T09:05:48.988Z,79.2
2023-02-01T09:10:38.700Z,77.4
2023-02-01T09:15:38.419Z,77.0
2023-02-01T09:20:38.251Z,77.5
2023-02-01T09:25:38.262Z,77.3
2023-02-01T09:30:38.363Z,78.5
2023-02-01T09:35:38.264Z,77.0
2023-02-01T09:40:38.238Z,76.9
2023-02-01T09:45:38.241Z,78.4
2023-02-01T09:50:38.254Z,77.5
2023-02-01T10:00:38.253Z,75.5
2023-02-01T10:05:38.252Z,75.2
2023-02-01T10:10:38.287Z,75.0
2023-02-01T10:15:38.282Z,76.8
2023-02-01T10:20:38.270Z,76.8
2023-02-01T10:30:38.302Z,77.6
2023-02-01T10:35:38.252Z,77.3
2023-02-01T10:40:38.264Z,79.1
2023-02-01T10:45:38.257Z,85.0
2023-02-01T10:50:38.252Z,88.0
2023-02-01T10:55:40.075Z,88.4
2023-02-01T11:05:38.292Z,95.2
2023-02-01T11:10:38.277Z,98.2
2023-02-01T11:15:38.293Z,99.1
2023-02-01T11:20:38.299Z,98.3
2023-02-01T11:25:38.264Z,96.9
2023-02-01T11:50:38.319Z,94.5
2023-02-01T11:55:38.360Z,95.7
2023-02-01T12:00:38.311Z,96.9
2023-02-01T12:05:38.306Z,95.5
2023-02-01T12:10:38.299Z,94.0
2023-02-01T12:15:38.275Z,92.8
2023-02-01T12:20:38.276Z,91.8
2023-02-01T12:25:38.331Z,91.2
2023-02-01T12:30:38.339Z,91.4
2023-02-01T12:35:38.319Z,89.2
2023-02-01T12:40:38.322Z,88.8
2023-02-01T12:55:38.277Z,87.0
2023-02-01T13:05:38.280Z,85.8
2023-02-01T13:15:38.310Z,84.6
2023-02-01T13:20:38.326Z,84.2
2023-02-01T13:25:38.306Z,84.6
2023-02-01T13:30:38.422Z,84.6
2023-02-01T13:35:38.303Z,84.7
2023-02-01T13:45:38.409Z,83.3
2023-02-01T13:50:38.320Z,82.3
2023-02-01T14:00:38.342Z,83.3
2023-02-01T14:05:38.339Z,83.0
2023-02-01T14:15:38.369Z,83.2
2023-02-01T14:20:38.328Z,82.4
2023-02-01T14:25:38.355Z,82.0
2023-02-01T14:30:38.371Z,81.7
2023-02-01T14:35:38.334Z,81.3
2023-02-01T14:45:38.438Z,80.2
2023-02-01T14:50:38.362Z,80.1
2023-02-01T15:00:38.322Z,81.0
2023-02-01T15:05:38.325Z,81.1
2023-02-01T15:10:38.327Z,80.4
2023-02-01T15:15:39.880Z,80.1
2023-02-01T15:20:38.341Z,80.1
2023-02-01T15:25:38.330Z,79.9
2023-02-01T15:30:38.359Z,80.3
2023-02-01T15:35:38.345Z,88.9
2023-02-01T15:40:38.333Z,91.8
2023-02-01T15:45:38.359Z,91.8
2023-02-01T15:50:38.329Z,90.8
2023-02-01T16:00:38.352Z,89.1
2023-02-01T16:05:38.356Z,88.5
2023-02-01T16:10:38.357Z,89.9
2023-02-01T16:15:38.339Z,90.5
2023-02-01T16:20:38.355Z,89.9
2023-02-01T16:25:38.357Z,90.1
2023-02-01T16:35:38.365Z,87.0
2023-02-01T16:50:38.337Z,86.4
2023-02-01T17:10:38.358Z,88.3
2023-02-01T17:15:38.421Z,88.5
2023-02-01T17:20:38.641Z,87.3
2023-02-01T17:30:38.364Z,85.2
2023-02-01T17:40:38.394Z,84.1
2023-02-01T17:50:38.378Z,83.2
2023-02-01T17:55:38.374Z,82.9
2023-02-01T18:00:39.168Z,82.6
2023-02-01T18:20:38.405Z,82.0
2023-02-01T18:25:38.403Z,81.5
2023-02-01T18:30:38.488Z,83.6
2023-02-01T18:45:38.375Z,97.8
2023-02-01T18:50:38.373Z,100.0
2023-02-01T18:55:38.416Z,100.0
2023-02-01T19:00:38.386Z,100.0
2023-02-01T19:05:38.367Z,100.0
2023-02-01T19:15:38.458Z,100.0
2023-02-01T19:20:38.409Z,100.0
2023-02-01T19:25:38.405Z,100.0
2023-02-01T19:30:38.486Z,100.0
2023-02-01T19:35:38.390Z,100.0
2023-02-01T19:40:38.452Z,100.0
2023-02-01T19:45:38.410Z,100.0
2023-02-01T20:05:37.576Z,100.0
2023-02-01T20:15:37.567Z,100.0
2023-02-01T20:20:37.536Z,100.0
2023-02-01T20:25:38.435Z,100.0
2023-02-01T20:30:38.466Z,100.0
2023-02-01T20:35:38.463Z,100.0
2023-02-01T20:40:38.441Z,100.0
2023-02-01T20:45:38.441Z,100.0
2023-02-01T20:50:38.452Z,100.0
2023-02-01T20:55:38.432Z,100.0
2023-02-01T21:05:38.446Z,100.0
2023-02-01T21:15:38.433Z,100.0
2023-02-01T21:20:38.452Z,100.0
2023-02-01T21:25:38.685Z,100.0
2023-02-01T21:30:38.522Z,100.0
2023-02-01T21:35:38.451Z,100.0
2023-02-01T21:40:38.460Z,100.0
2023-02-01T21:50:38.461Z,100.0
2023-02-01T21:55:38.483Z,100.0
2023-02-01T22:00:38.451Z,100.0
2023-02-01T22:10:38.486Z,100.0
2023-02-01T22:15:38.478Z,100.0
2023-02-01T22:20:38.475Z,100.0
2023-02-01T22:25:38.482Z,100.0
2023-02-01T22:40:38.471Z,100.0
2023-02-01T22:45:38.462Z,100.0
2023-02-01T22:50:38.479Z,100.0
2023-02-01T23:05:38.468Z,100.0
2023-02-01T23:10:38.455Z,100.0
2023-02-01T23:15:38.497Z,100.0
2023-02-01T23:25:38.451Z,100.0
2023-02-01T23:35:38.466Z,100.0
2023-02-01T23:45:38.475Z,100.0
2023-02-01T23:50:38.470Z,100.0
2023-02-01T23:55:38.472Z,100.0
